sensor_id;sensor_type;location;lat;lon;timestamp;P1;durP1;ratioP1;P2;durP2;ratioP2
47009;SDS011;59230;54.164;-3.124;2023-04-15T00:01:00;8.57;;;4.55;;
47009;SDS011;59230;54.164;-3.124;2023-04-15T00:03:27;14.68;;;5.05;;
47009;SDS011;59230;54.164;-3.124;2023-04-15T00:05:54;11.15;;;4.82;;
47009;SDS011;59230;54.164;-3.124;2023-04-15T00:08:21;14.55;;;4.57;;
47009;SDS011;59230;54.164;-3.124;2023-04-15T00:10:49;17.00;;;4.85;;
47009;SDS011;59230;54.164;-3.124;2023-04-15T00:13:15;12.55;;;4.47;;
47009;SDS011;59230;54.164;-3.124;2023-04-15T00:15:41;13.13;;;4.50;;
47009;SDS011;59230;54.164;-3.124;2023-04-15T00:18:07;14.27;;;5.03;;
47009;SDS011;59230;54.164;-3.124;2023-04-15T00:20:35;8.25;;;4.45;;
47009;SDS011;59230;54.164;-3.124;2023-04-15T00:23:01;10.57;;;4.80;;
47009;SDS011;59230;54.164;-3.124;2023-04-15T00:25:28;10.40;;;4.82;;
47009;SDS011;59230;54.164;-3.124;2023-04-15T00:27:54;10.60;;;4.60;;
47009;SDS011;59230;54.164;-3.124;2023-04-15T00:30:23;16.35;;;5.03;;
47009;SDS011;59230;54.164;-3.124;2023-04-15T00:32:51;14.80;;;5.20;;
47009;SDS011;59230;54.164;-3.124;2023-04-15T00:35:18;12.07;;;4.80;;
47009;SDS011;59230;54.164;-3.124;2023-04-15T00:37:44;15.70;;;5.05;;
47009;SDS011;59230;54.164;-3.124;2023-04-15T00:40:13;17.55;;;5.18;;
47009;SDS011;59230;54.164;-3.124;2023-04-15T00:42:42;14.13;;;5.65;;
47009;SDS011;59230;54.164;-3.124;2023-04-15T00:45:10;15.82;;;5.25;;
47009;SDS011;59230;54.164;-3.124;2023-04-15T00:47:38;10.50;;;5.30;;
47009;SDS011;59230;54.164;-3.124;2023-04-15T00:50:07;12.80;;;5.05;;
47009;SDS011;59230;54.164;-3.124;2023-04-15T00:52:33;10.85;;;5.82;;
47009;SDS011;59230;54.164;-3.124;2023-04-15T00:55:02;16.83;;;5.53;;
47009;SDS011;59230;54.164;-3.124;2023-04-15T00:57:30;11.48;;;5.43;;
47009;SDS011;59230;54.164;-3.124;2023-04-15T00:59:56;13.50;;;5.38;;
47009;SDS011;59230;54.164;-3.124;2023-04-15T01:02:22;17.42;;;5.82;;
47009;SDS011;59230;54.164;-3.124;2023-04-15T01:04:49;14.98;;;5.45;;
47009;SDS011;59230;54.164;-3.124;2023-04-15T01:07:16;12.82;;;5.50;;
47009;SDS011;59230;54.164;-3.124;2023-04-15T01:09:43;12.27;;;5.15;;
47009;SDS011;59230;54.164;-3.124;2023-04-15T01:12:11;16.88;;;5.07;;
47009;SDS011;59230;54.164;-3.124;2023-04-15T01:14:39;13.85;;;5.82;;
47009;SDS011;59230;54.164;-3.124;2023-04-15T01:17:06;12.15;;;5.07;;
47009;SDS011;59230;54.164;-3.124;2023-04-15T01:19:35;11.85;;;5.13;;
47009;SDS011;59230;54.164;-3.124;2023-04-15T01:22:02;15.52;;;5.70;;
47009;SDS011;59230;54.164;-3.124;2023-04-15T01:24:31;12.75;;;5.85;;
47009;SDS011;59230;54.164;-3.124;2023-04-15T01:26:59;13.27;;;5.03;;
47009;SDS011;59230;54.164;-3.124;2023-04-15T01:29:25;15.20;;;5.18;;
47009;SDS011;59230;54.164;-3.124;2023-04-15T01:31:54;12.55;;;5.03;;
47009;SDS011;59230;54.164;-3.124;2023-04-15T01:34:22;11.65;;;4.72;;
47009;SDS011;59230;54.164;-3.124;2023-04-15T01:36:48;11.25;;;5.15;;
47009;SDS011;59230;54.164;-3.124;2023-04-15T01:39:14;13.73;;;5.70;;
47009;SDS011;59230;54.164;-3.124;2023-04-15T01:41:43;10.48;;;4.93;;
47009;SDS011;59230;54.164;-3.124;2023-04-15T01:44:10;7.82;;;4.57;;
47009;SDS011;59230;54.164;-3.124;2023-04-15T01:46:37;11.75;;;5.03;;
47009;SDS011;59230;54.164;-3.124;2023-04-15T01:49:04;12.52;;;4.60;;
47009;SDS011;59230;54.164;-3.124;2023-04-15T01:51:33;8.13;;;4.45;;
47009;SDS011;59230;54.164;-3.124;2023-04-15T01:53:59;11.00;;;4.20;;
47009;SDS011;59230;54.164;-3.124;2023-04-15T01:56:27;10.10;;;4.47;;
47009;SDS011;59230;54.164;-3.124;2023-04-15T01:58:52;8.45;;;4.50;;
47009;SDS011;59230;54.164;-3.124;2023-04-15T02:01:18;5.60;;;3.65;;
47009;SDS011;59230;54.164;-3.124;2023-04-15T02:03:46;7.90;;;3.95;;
47009;SDS011;59230;54.164;-3.124;2023-04-15T02:06:13;6.22;;;3.40;;
47009;SDS011;59230;54.164;-3.124;2023-04-15T02:08:40;7.10;;;3.10;;
47009;SDS011;59230;54.164;-3.124;2023-04-15T02:11:05;6.85;;;3.05;;
47009;SDS011;59230;54.164;-3.124;2023-04-15T02:13:31;6.07;;;3.10;;
47009;SDS011;59230;54.164;-3.124;2023-04-15T02:15:56;4.60;;;2.97;;
47009;SDS011;59230;54.164;-3.124;2023-04-15T02:18:22;4.80;;;2.90;;
47009;SDS011;59230;54.164;-3.124;2023-04-15T02:20:50;10.63;;;3.60;;
47009;SDS011;59230;54.164;-3.124;2023-04-15T02:23:17;6.18;;;2.70;;
47009;SDS011;59230;54.164;-3.124;2023-04-15T02:25:45;4.45;;;2.70;;
47009;SDS011;59230;54.164;-3.124;2023-04-15T02:28:11;5.65;;;2.75;;
47009;SDS011;59230;54.164;-3.124;2023-04-15T02:30:37;5.43;;;3.03;;
47009;SDS011;59230;54.164;-3.124;2023-04-15T02:33:03;5.13;;;3.35;;
47009;SDS011;59230;54.164;-3.124;2023-04-15T02:35:33;5.45;;;2.90;;
47009;SDS011;59230;54.164;-3.124;2023-04-15T02:38:02;4.82;;;3.05;;
47009;SDS011;59230;54.164;-3.124;2023-04-15T02:40:29;4.55;;;3.22;;
47009;SDS011;59230;54.164;-3.124;2023-04-15T02:42:56;5.20;;;3.40;;
47009;SDS011;59230;54.164;-3.124;2023-04-15T02:45:21;6.22;;;3.60;;
47009;SDS011;59230;54.164;-3.124;2023-04-15T02:47:52;7.10;;;3.78;;
47009;SDS011;59230;54.164;-3.124;2023-04-15T02:50:19;7.63;;;3.80;;
47009;SDS011;59230;54.164;-3.124;2023-04-15T02:52:46;7.25;;;3.88;;
47009;SDS011;59230;54.164;-3.124;2023-04-15T02:55:12;7.53;;;3.80;;
47009;SDS011;59230;54.164;-3.124;2023-04-15T02:57:41;7.28;;;4.50;;
47009;SDS011;59230;54.164;-3.124;2023-04-15T03:00:08;6.35;;;4.30;;
47009;SDS011;59230;54.164;-3.124;2023-04-15T03:02:39;8.75;;;4.00;;
47009;SDS011;59230;54.164;-3.124;2023-04-15T03:05:10;6.50;;;4.60;;
47009;SDS011;59230;54.164;-3.124;2023-04-15T03:07:36;7.45;;;4.22;;
47009;SDS011;59230;54.164;-3.124;2023-04-15T03:10:05;7.75;;;5.13;;
47009;SDS011;59230;54.164;-3.124;2023-04-15T03:12:33;8.77;;;4.55;;
47009;SDS011;59230;54.164;-3.124;2023-04-15T03:15:02;6.88;;;4.72;;
47009;SDS011;59230;54.164;-3.124;2023-04-15T03:17:29;6.63;;;4.97;;
47009;SDS011;59230;54.164;-3.124;2023-04-15T03:19:56;8.02;;;4.68;;
47009;SDS011;59230;54.164;-3.124;2023-04-15T03:22:22;6.78;;;4.53;;
47009;SDS011;59230;54.164;-3.124;2023-04-15T03:24:51;7.40;;;5.20;;
47009;SDS011;59230;54.164;-3.124;2023-04-15T03:27:18;6.28;;;4.35;;
47009;SDS011;59230;54.164;-3.124;2023-04-15T03:29:45;5.55;;;4.25;;
47009;SDS011;59230;54.164;-3.124;2023-04-15T03:32:11;7.70;;;5.25;;
47009;SDS011;59230;54.164;-3.124;2023-04-15T03:34:40;7.70;;;5.00;;
47009;SDS011;59230;54.164;-3.124;2023-04-15T03:37:07;7.60;;;4.93;;
47009;SDS011;59230;54.164;-3.124;2023-04-15T03:39:34;9.85;;;5.53;;
47009;SDS011;59230;54.164;-3.124;2023-04-15T03:41:59;10.63;;;5.32;;
47009;SDS011;59230;54.164;-3.124;2023-04-15T03:44:25;9.82;;;5.70;;
47009;SDS011;59230;54.164;-3.124;2023-04-15T03:46:52;8.82;;;5.93;;
47009;SDS011;59230;54.164;-3.124;2023-04-15T03:49:19;11.13;;;5.65;;
47009;SDS011;59230;54.164;-3.124;2023-04-15T03:51:48;8.85;;;5.10;;
47009;SDS011;59230;54.164;-3.124;2023-04-15T03:54:16;7.28;;;5.32;;
47009;SDS011;59230;54.164;-3.124;2023-04-15T03:56:41;6.25;;;4.85;;
47009;SDS011;59230;54.164;-3.124;2023-04-15T03:59:08;10.35;;;5.30;;
47009;SDS011;59230;54.164;-3.124;2023-04-15T04:01:33;10.25;;;5.18;;
47009;SDS011;59230;54.164;-3.124;2023-04-15T04:03:59;12.43;;;5.80;;
47009;SDS011;59230;54.164;-3.124;2023-04-15T04:06:25;9.65;;;5.90;;
47009;SDS011;59230;54.164;-3.124;2023-04-15T04:08:52;9.55;;;5.63;;
47009;SDS011;59230;54.164;-3.124;2023-04-15T04:11:22;11.05;;;6.10;;
47009;SDS011;59230;54.164;-3.124;2023-04-15T04:13:48;8.35;;;6.07;;
47009;SDS011;59230;54.164;-3.124;2023-04-15T04:16:13;7.82;;;5.47;;
47009;SDS011;59230;54.164;-3.124;2023-04-15T04:18:39;11.00;;;5.72;;
47009;SDS011;59230;54.164;-3.124;2023-04-15T04:21:06;12.73;;;6.25;;
47009;SDS011;59230;54.164;-3.124;2023-04-15T04:23:31;15.40;;;5.85;;
47009;SDS011;59230;54.164;-3.124;2023-04-15T04:25:57;8.63;;;5.78;;
47009;SDS011;59230;54.164;-3.124;2023-04-15T04:28:29;11.95;;;6.50;;
47009;SDS011;59230;54.164;-3.124;2023-04-15T04:30:58;7.75;;;5.47;;
47009;SDS011;59230;54.164;-3.124;2023-04-15T04:33:23;9.57;;;6.25;;
47009;SDS011;59230;54.164;-3.124;2023-04-15T04:35:53;10.98;;;6.35;;
47009;SDS011;59230;54.164;-3.124;2023-04-15T04:38:18;10.68;;;6.07;;
47009;SDS011;59230;54.164;-3.124;2023-04-15T04:40:44;15.35;;;7.45;;
47009;SDS011;59230;54.164;-3.124;2023-04-15T04:43:10;11.77;;;6.88;;
47009;SDS011;59230;54.164;-3.124;2023-04-15T04:45:38;9.60;;;6.78;;
47009;SDS011;59230;54.164;-3.124;2023-04-15T04:48:05;9.95;;;6.90;;
47009;SDS011;59230;54.164;-3.124;2023-04-15T04:50:35;10.98;;;6.95;;
47009;SDS011;59230;54.164;-3.124;2023-04-15T04:53:02;10.75;;;6.68;;
47009;SDS011;59230;54.164;-3.124;2023-04-15T04:55:28;11.68;;;6.40;;
47009;SDS011;59230;54.164;-3.124;2023-04-15T04:57:55;8.13;;;6.43;;
47009;SDS011;59230;54.164;-3.124;2023-04-15T05:00:23;8.75;;;6.72;;
47009;SDS011;59230;54.164;-3.124;2023-04-15T05:02:50;10.73;;;6.68;;
47009;SDS011;59230;54.164;-3.124;2023-04-15T05:05:17;9.00;;;6.00;;
47009;SDS011;59230;54.164;-3.124;2023-04-15T05:07:42;8.82;;;6.32;;
47009;SDS011;59230;54.164;-3.124;2023-04-15T05:10:09;8.38;;;5.57;;
47009;SDS011;59230;54.164;-3.124;2023-04-15T05:12:36;8.85;;;6.03;;
47009;SDS011;59230;54.164;-3.124;2023-04-15T05:15:03;8.98;;;5.65;;
47009;SDS011;59230;54.164;-3.124;2023-04-15T05:17:33;8.77;;;5.78;;
47009;SDS011;59230;54.164;-3.124;2023-04-15T05:20:01;8.77;;;5.78;;
47009;SDS011;59230;54.164;-3.124;2023-04-15T05:22:29;11.20;;;6.05;;
47009;SDS011;59230;54.164;-3.124;2023-04-15T05:24:55;11.45;;;6.32;;
47009;SDS011;59230;54.164;-3.124;2023-04-15T05:27:20;11.82;;;6.28;;
47009;SDS011;59230;54.164;-3.124;2023-04-15T05:29:48;10.23;;;6.68;;
47009;SDS011;59230;54.164;-3.124;2023-04-15T05:32:14;13.90;;;7.22;;
47009;SDS011;59230;54.164;-3.124;2023-04-15T05:34:39;12.05;;;6.80;;
47009;SDS011;59230;54.164;-3.124;2023-04-15T05:37:05;13.00;;;7.63;;
47009;SDS011;59230;54.164;-3.124;2023-04-15T05:39:30;10.40;;;6.13;;
47009;SDS011;59230;54.164;-3.124;2023-04-15T05:41:57;11.35;;;6.93;;
47009;SDS011;59230;54.164;-3.124;2023-04-15T05:44:25;11.13;;;7.00;;
47009;SDS011;59230;54.164;-3.124;2023-04-15T05:46:52;9.18;;;5.80;;
47009;SDS011;59230;54.164;-3.124;2023-04-15T05:49:19;10.10;;;6.60;;
47009;SDS011;59230;54.164;-3.124;2023-04-15T05:51:46;10.18;;;6.72;;
47009;SDS011;59230;54.164;-3.124;2023-04-15T05:54:12;9.35;;;6.45;;
47009;SDS011;59230;54.164;-3.124;2023-04-15T05:56:38;9.57;;;6.00;;
47009;SDS011;59230;54.164;-3.124;2023-04-15T05:59:06;10.32;;;7.15;;
47009;SDS011;59230;54.164;-3.124;2023-04-15T06:01:34;11.40;;;7.25;;
47009;SDS011;59230;54.164;-3.124;2023-04-15T06:04:02;13.25;;;6.70;;
47009;SDS011;59230;54.164;-3.124;2023-04-15T06:06:28;12.75;;;7.05;;
47009;SDS011;59230;54.164;-3.124;2023-04-15T06:08:55;13.70;;;6.93;;
47009;SDS011;59230;54.164;-3.124;2023-04-15T06:11:21;11.18;;;6.68;;
47009;SDS011;59230;54.164;-3.124;2023-04-15T06:13:47;12.60;;;7.00;;
47009;SDS011;59230;54.164;-3.124;2023-04-15T06:16:13;10.85;;;6.80;;
47009;SDS011;59230;54.164;-3.124;2023-04-15T06:18:39;10.55;;;6.70;;
47009;SDS011;59230;54.164;-3.124;2023-04-15T06:21:07;12.82;;;7.60;;
47009;SDS011;59230;54.164;-3.124;2023-04-15T06:23:38;11.23;;;6.97;;
47009;SDS011;59230;54.164;-3.124;2023-04-15T06:26:07;11.68;;;7.22;;
47009;SDS011;59230;54.164;-3.124;2023-04-15T06:28:33;12.80;;;7.68;;
47009;SDS011;59230;54.164;-3.124;2023-04-15T06:30:58;13.38;;;7.60;;
47009;SDS011;59230;54.164;-3.124;2023-04-15T06:33:26;15.75;;;7.55;;
47009;SDS011;59230;54.164;-3.124;2023-04-15T06:35:54;14.18;;;8.63;;
47009;SDS011;59230;54.164;-3.124;2023-04-15T06:38:19;12.68;;;7.93;;
47009;SDS011;59230;54.164;-3.124;2023-04-15T06:40:46;11.38;;;8.02;;
47009;SDS011;59230;54.164;-3.124;2023-04-15T06:43:12;14.40;;;9.00;;
47009;SDS011;59230;54.164;-3.124;2023-04-15T06:45:38;12.57;;;8.52;;
47009;SDS011;59230;54.164;-3.124;2023-04-15T06:48:04;13.75;;;8.27;;
47009;SDS011;59230;54.164;-3.124;2023-04-15T06:50:31;16.60;;;9.23;;
47009;SDS011;59230;54.164;-3.124;2023-04-15T06:52:57;9.52;;;7.03;;
47009;SDS011;59230;54.164;-3.124;2023-04-15T06:55:23;12.98;;;7.93;;
47009;SDS011;59230;54.164;-3.124;2023-04-15T06:57:49;12.52;;;8.40;;
47009;SDS011;59230;54.164;-3.124;2023-04-15T07:00:18;10.98;;;7.38;;
47009;SDS011;59230;54.164;-3.124;2023-04-15T07:02:45;11.32;;;7.70;;
47009;SDS011;59230;54.164;-3.124;2023-04-15T07:05:16;11.93;;;7.85;;
47009;SDS011;59230;54.164;-3.124;2023-04-15T07:07:42;10.02;;;7.18;;
47009;SDS011;59230;54.164;-3.124;2023-04-15T07:10:08;11.43;;;6.45;;
47009;SDS011;59230;54.164;-3.124;2023-04-15T07:12:34;9.43;;;6.55;;
47009;SDS011;59230;54.164;-3.124;2023-04-15T07:15:00;13.38;;;8.35;;
47009;SDS011;59230;54.164;-3.124;2023-04-15T07:17:26;11.30;;;7.35;;
47009;SDS011;59230;54.164;-3.124;2023-04-15T07:19:53;13.88;;;7.28;;
47009;SDS011;59230;54.164;-3.124;2023-04-15T07:22:19;12.35;;;6.47;;
47009;SDS011;59230;54.164;-3.124;2023-04-15T07:24:45;9.85;;;6.90;;
47009;SDS011;59230;54.164;-3.124;2023-04-15T07:27:11;10.18;;;7.57;;
47009;SDS011;59230;54.164;-3.124;2023-04-15T07:29:37;8.27;;;5.40;;
47009;SDS011;59230;54.164;-3.124;2023-04-15T07:32:03;8.82;;;4.75;;
47009;SDS011;59230;54.164;-3.124;2023-04-15T07:34:30;9.98;;;6.00;;
47009;SDS011;59230;54.164;-3.124;2023-04-15T07:36:58;9.23;;;6.68;;
47009;SDS011;59230;54.164;-3.124;2023-04-15T07:39:25;8.02;;;5.28;;
47009;SDS011;59230;54.164;-3.124;2023-04-15T07:41:51;9.32;;;4.80;;
47009;SDS011;59230;54.164;-3.124;2023-04-15T07:44:18;7.50;;;4.57;;
47009;SDS011;59230;54.164;-3.124;2023-04-15T07:46:44;5.88;;;3.67;;
47009;SDS011;59230;54.164;-3.124;2023-04-15T07:49:10;7.13;;;3.42;;
47009;SDS011;59230;54.164;-3.124;2023-04-15T07:51:37;6.57;;;3.70;;
47009;SDS011;59230;54.164;-3.124;2023-04-15T07:54:03;5.80;;;3.00;;
47009;SDS011;59230;54.164;-3.124;2023-04-15T07:56:29;8.35;;;4.70;;
47009;SDS011;59230;54.164;-3.124;2023-04-15T07:58:56;8.98;;;3.92;;
47009;SDS011;59230;54.164;-3.124;2023-04-15T08:01:21;5.72;;;4.50;;
47009;SDS011;59230;54.164;-3.124;2023-04-15T08:03:48;6.60;;;4.05;;
47009;SDS011;59230;54.164;-3.124;2023-04-15T08:06:16;4.43;;;3.72;;
47009;SDS011;59230;54.164;-3.124;2023-04-15T08:08:44;6.53;;;3.97;;
47009;SDS011;59230;54.164;-3.124;2023-04-15T08:11:11;4.30;;;3.30;;
47009;SDS011;59230;54.164;-3.124;2023-04-15T08:13:38;4.10;;;3.30;;
47009;SDS011;59230;54.164;-3.124;2023-04-15T08:16:14;5.45;;;3.15;;
47009;SDS011;59230;54.164;-3.124;2023-04-15T08:18:43;6.43;;;2.60;;
47009;SDS011;59230;54.164;-3.124;2023-04-15T08:21:10;4.65;;;2.53;;
47009;SDS011;59230;54.164;-3.124;2023-04-15T08:23:38;4.18;;;2.90;;
47009;SDS011;59230;54.164;-3.124;2023-04-15T08:26:04;3.20;;;2.00;;
47009;SDS011;59230;54.164;-3.124;2023-04-15T08:28:31;3.70;;;2.30;;
47009;SDS011;59230;54.164;-3.124;2023-04-15T08:30:56;2.47;;;1.67;;
47009;SDS011;59230;54.164;-3.124;2023-04-15T08:33:24;2.72;;;1.85;;
47009;SDS011;59230;54.164;-3.124;2023-04-15T08:35:50;5.10;;;1.98;;
47009;SDS011;59230;54.164;-3.124;2023-04-15T08:38:17;3.08;;;1.77;;
47009;SDS011;59230;54.164;-3.124;2023-04-15T08:40:44;5.85;;;1.80;;
47009;SDS011;59230;54.164;-3.124;2023-04-15T08:43:21;3.00;;;1.80;;
47009;SDS011;59230;54.164;-3.124;2023-04-15T08:45:56;6.00;;;1.60;;
47009;SDS011;59230;54.164;-3.124;2023-04-15T08:48:26;3.38;;;1.65;;
47009;SDS011;59230;54.164;-3.124;2023-04-15T08:50:53;2.72;;;1.48;;
47009;SDS011;59230;54.164;-3.124;2023-04-15T08:53:19;2.67;;;1.40;;
47009;SDS011;59230;54.164;-3.124;2023-04-15T08:55:51;2.53;;;1.02;;
47009;SDS011;59230;54.164;-3.124;2023-04-15T08:58:18;1.63;;;1.00;;
47009;SDS011;59230;54.164;-3.124;2023-04-15T09:00:44;3.78;;;1.25;;
47009;SDS011;59230;54.164;-3.124;2023-04-15T09:03:10;4.28;;;1.05;;
47009;SDS011;59230;54.164;-3.124;2023-04-15T09:05:38;1.10;;;1.00;;
47009;SDS011;59230;54.164;-3.124;2023-04-15T09:08:04;2.67;;;1.10;;
47009;SDS011;59230;54.164;-3.124;2023-04-15T09:10:30;2.38;;;0.90;;
47009;SDS011;59230;54.164;-3.124;2023-04-15T09:13:00;3.30;;;1.55;;
47009;SDS011;59230;54.164;-3.124;2023-04-15T09:15:29;5.60;;;1.25;;
47009;SDS011;59230;54.164;-3.124;2023-04-15T09:17:59;2.88;;;1.30;;
47009;SDS011;59230;54.164;-3.124;2023-04-15T09:20:26;3.20;;;1.20;;
47009;SDS011;59230;54.164;-3.124;2023-04-15T09:22:52;1.60;;;1.35;;
47009;SDS011;59230;54.164;-3.124;2023-04-15T09:25:25;3.05;;;1.33;;
47009;SDS011;59230;54.164;-3.124;2023-04-15T09:27:55;3.50;;;1.30;;
47009;SDS011;59230;54.164;-3.124;2023-04-15T09:30:26;3.10;;;1.60;;
47009;SDS011;59230;54.164;-3.124;2023-04-15T09:32:55;2.22;;;1.30;;
47009;SDS011;59230;54.164;-3.124;2023-04-15T09:35:22;1.15;;;0.95;;
47009;SDS011;59230;54.164;-3.124;2023-04-15T09:37:49;2.45;;;1.10;;
47009;SDS011;59230;54.164;-3.124;2023-04-15T09:40:32;3.42;;;1.20;;
47009;SDS011;59230;54.164;-3.124;2023-04-15T09:43:09;1.67;;;0.70;;
47009;SDS011;59230;54.164;-3.124;2023-04-15T09:45:40;1.75;;;0.85;;
47009;SDS011;59230;54.164;-3.124;2023-04-15T09:48:17;1.63;;;0.85;;
47009;SDS011;59230;54.164;-3.124;2023-04-15T09:50:50;2.38;;;0.80;;
47009;SDS011;59230;54.164;-3.124;2023-04-15T09:53:20;1.13;;;0.80;;
47009;SDS011;59230;54.164;-3.124;2023-04-15T10:00:48;1.98;;;1.20;;
47009;SDS011;59230;54.164;-3.124;2023-04-15T10:03:20;3.65;;;1.40;;
47009;SDS011;59230;54.164;-3.124;2023-04-15T10:05:50;2.20;;;1.20;;
47009;SDS011;59230;54.164;-3.124;2023-04-15T10:08:17;2.45;;;1.50;;
47009;SDS011;59230;54.164;-3.124;2023-04-15T10:10:46;3.22;;;1.67;;
47009;SDS011;59230;54.164;-3.124;2023-04-15T10:13:15;2.22;;;1.50;;
47009;SDS011;59230;54.164;-3.124;2023-04-15T10:15:47;2.45;;;1.60;;
47009;SDS011;59230;54.164;-3.124;2023-04-15T10:18:35;1.75;;;1.35;;
47009;SDS011;59230;54.164;-3.124;2023-04-15T10:21:04;2.30;;;1.42;;
47009;SDS011;59230;54.164;-3.124;2023-04-15T10:23:33;1.65;;;1.20;;
47009;SDS011;59230;54.164;-3.124;2023-04-15T10:26:00;1.70;;;0.93;;
47009;SDS011;59230;54.164;-3.124;2023-04-15T10:28:28;2.35;;;1.40;;
47009;SDS011;59230;54.164;-3.124;2023-04-15T10:30:54;1.63;;;1.00;;
47009;SDS011;59230;54.164;-3.124;2023-04-15T10:33:21;2.65;;;1.20;;
47009;SDS011;59230;54.164;-3.124;2023-04-15T10:35:49;1.25;;;0.93;;
47009;SDS011;59230;54.164;-3.124;2023-04-15T10:43:55;2.55;;;1.25;;
47009;SDS011;59230;54.164;-3.124;2023-04-15T10:46:41;2.08;;;1.10;;
47009;SDS011;59230;54.164;-3.124;2023-04-15T10:49:23;3.85;;;1.98;;
47009;SDS011;59230;54.164;-3.124;2023-04-15T10:51:52;2.03;;;1.20;;
47009;SDS011;59230;54.164;-3.124;2023-04-15T10:57:13;1.85;;;1.45;;
47009;SDS011;59230;54.164;-3.124;2023-04-15T11:03:15;2.97;;;0.90;;
47009;SDS011;59230;54.164;-3.124;2023-04-15T11:08:16;2.28;;;1.10;;
47009;SDS011;59230;54.164;-3.124;2023-04-15T11:15:47;1.55;;;1.13;;
47009;SDS011;59230;54.164;-3.124;2023-04-15T11:18:21;1.20;;;0.82;;
47009;SDS011;59230;54.164;-3.124;2023-04-15T11:26:02;3.15;;;1.20;;
47009;SDS011;59230;54.164;-3.124;2023-04-15T11:28:33;4.22;;;1.38;;
47009;SDS011;59230;54.164;-3.124;2023-04-15T11:31:14;2.17;;;1.20;;
47009;SDS011;59230;54.164;-3.124;2023-04-15T11:34:01;2.20;;;1.40;;
47009;SDS011;59230;54.164;-3.124;2023-04-15T11:36:29;2.80;;;1.48;;
47009;SDS011;59230;54.164;-3.124;2023-04-15T11:38:58;2.55;;;1.60;;
47009;SDS011;59230;54.164;-3.124;2023-04-15T11:41:25;3.55;;;1.42;;
47009;SDS011;59230;54.164;-3.124;2023-04-15T11:43:51;1.73;;;1.30;;
47009;SDS011;59230;54.164;-3.124;2023-04-15T11:46:27;3.80;;;1.55;;
47009;SDS011;59230;54.164;-3.124;2023-04-15T11:48:55;2.00;;;1.40;;
47009;SDS011;59230;54.164;-3.124;2023-04-15T11:51:24;2.40;;;1.30;;
47009;SDS011;59230;54.164;-3.124;2023-04-15T11:53:49;2.05;;;1.38;;
47009;SDS011;59230;54.164;-3.124;2023-04-15T11:56:18;2.83;;;1.55;;
47009;SDS011;59230;54.164;-3.124;2023-04-15T11:58:47;5.07;;;1.48;;
47009;SDS011;59230;54.164;-3.124;2023-04-15T12:01:16;2.25;;;1.63;;
47009;SDS011;59230;54.164;-3.124;2023-04-15T12:03:46;3.47;;;1.65;;
47009;SDS011;59230;54.164;-3.124;2023-04-15T12:06:17;6.93;;;2.15;;
47009;SDS011;59230;54.164;-3.124;2023-04-15T12:11:47;2.65;;;2.00;;
47009;SDS011;59230;54.164;-3.124;2023-04-15T12:14:27;4.53;;;2.10;;
47009;SDS011;59230;54.164;-3.124;2023-04-15T12:17:05;3.10;;;2.03;;
47009;SDS011;59230;54.164;-3.124;2023-04-15T12:19:36;3.40;;;2.13;;
47009;SDS011;59230;54.164;-3.124;2023-04-15T12:22:15;3.42;;;2.55;;
47009;SDS011;59230;54.164;-3.124;2023-04-15T12:24:42;4.07;;;2.80;;
47009;SDS011;59230;54.164;-3.124;2023-04-15T12:27:15;2.78;;;2.35;;
47009;SDS011;59230;54.164;-3.124;2023-04-15T12:29:43;4.82;;;2.70;;
47009;SDS011;59230;54.164;-3.124;2023-04-15T12:34:43;3.50;;;2.53;;
47009;SDS011;59230;54.164;-3.124;2023-04-15T12:37:14;5.47;;;2.40;;
47009;SDS011;59230;54.164;-3.124;2023-04-15T12:39:41;4.95;;;2.53;;
47009;SDS011;59230;54.164;-3.124;2023-04-15T12:42:08;4.38;;;2.65;;
47009;SDS011;59230;54.164;-3.124;2023-04-15T12:44:37;5.47;;;3.15;;
47009;SDS011;59230;54.164;-3.124;2023-04-15T12:47:03;7.30;;;3.30;;
47009;SDS011;59230;54.164;-3.124;2023-04-15T12:49:31;3.85;;;3.10;;
47009;SDS011;59230;54.164;-3.124;2023-04-15T12:51:58;4.65;;;3.10;;
47009;SDS011;59230;54.164;-3.124;2023-04-15T12:54:27;3.97;;;2.95;;
47009;SDS011;59230;54.164;-3.124;2023-04-15T12:57:00;4.60;;;3.42;;
47009;SDS011;59230;54.164;-3.124;2023-04-15T12:59:27;5.97;;;3.60;;
47009;SDS011;59230;54.164;-3.124;2023-04-15T13:01:55;5.43;;;3.67;;
47009;SDS011;59230;54.164;-3.124;2023-04-15T13:04:23;5.88;;;3.55;;
47009;SDS011;59230;54.164;-3.124;2023-04-15T13:06:48;6.43;;;3.67;;
47009;SDS011;59230;54.164;-3.124;2023-04-15T13:09:14;5.00;;;4.00;;
47009;SDS011;59230;54.164;-3.124;2023-04-15T13:11:39;6.82;;;4.20;;
47009;SDS011;59230;54.164;-3.124;2023-04-15T13:14:08;7.28;;;3.83;;
47009;SDS011;59230;54.164;-3.124;2023-04-15T13:16:37;6.90;;;4.05;;
47009;SDS011;59230;54.164;-3.124;2023-04-15T13:19:03;5.65;;;4.18;;
47009;SDS011;59230;54.164;-3.124;2023-04-15T13:21:29;6.68;;;4.60;;
47009;SDS011;59230;54.164;-3.124;2023-04-15T13:24:01;5.65;;;3.75;;
47009;SDS011;59230;54.164;-3.124;2023-04-15T13:26:29;6.57;;;4.28;;
47009;SDS011;59230;54.164;-3.124;2023-04-15T13:28:56;7.85;;;4.38;;
47009;SDS011;59230;54.164;-3.124;2023-04-15T13:31:23;7.47;;;4.45;;
47009;SDS011;59230;54.164;-3.124;2023-04-15T13:33:51;7.05;;;4.72;;
47009;SDS011;59230;54.164;-3.124;2023-04-15T13:36:19;5.70;;;4.10;;
47009;SDS011;59230;54.164;-3.124;2023-04-15T13:38:46;5.95;;;3.75;;
47009;SDS011;59230;54.164;-3.124;2023-04-15T13:41:13;7.18;;;4.63;;
47009;SDS011;59230;54.164;-3.124;2023-04-15T13:43:39;7.30;;;4.60;;
47009;SDS011;59230;54.164;-3.124;2023-04-15T13:46:04;6.85;;;4.35;;
47009;SDS011;59230;54.164;-3.124;2023-04-15T13:48:31;6.35;;;4.40;;
47009;SDS011;59230;54.164;-3.124;2023-04-15T13:50:59;9.82;;;4.95;;
47009;SDS011;59230;54.164;-3.124;2023-04-15T13:53:25;7.95;;;4.60;;
47009;SDS011;59230;54.164;-3.124;2023-04-15T13:55:52;6.43;;;4.32;;
47009;SDS011;59230;54.164;-3.124;2023-04-15T13:58:20;8.20;;;4.90;;
47009;SDS011;59230;54.164;-3.124;2023-04-15T14:00:45;5.28;;;4.10;;
47009;SDS011;59230;54.164;-3.124;2023-04-15T14:03:13;9.05;;;5.22;;
47009;SDS011;59230;54.164;-3.124;2023-04-15T14:05:42;5.68;;;4.07;;
47009;SDS011;59230;54.164;-3.124;2023-04-15T14:08:08;6.28;;;4.65;;
47009;SDS011;59230;54.164;-3.124;2023-04-15T14:10:35;7.90;;;5.13;;
47009;SDS011;59230;54.164;-3.124;2023-04-15T14:13:03;6.78;;;4.68;;
47009;SDS011;59230;54.164;-3.124;2023-04-15T14:15:29;6.40;;;4.78;;
47009;SDS011;59230;54.164;-3.124;2023-04-15T14:17:54;8.73;;;4.93;;
47009;SDS011;59230;54.164;-3.124;2023-04-15T14:20:20;8.50;;;4.90;;
47009;SDS011;59230;54.164;-3.124;2023-04-15T14:22:47;7.70;;;5.10;;
47009;SDS011;59230;54.164;-3.124;2023-04-15T14:25:14;8.35;;;4.47;;
47009;SDS011;59230;54.164;-3.124;2023-04-15T14:27:40;7.30;;;4.78;;
47009;SDS011;59230;54.164;-3.124;2023-04-15T14:30:05;5.88;;;4.22;;
47009;SDS011;59230;54.164;-3.124;2023-04-15T14:32:31;4.10;;;3.70;;
47009;SDS011;59230;54.164;-3.124;2023-04-15T14:34:57;7.30;;;3.88;;
47009;SDS011;59230;54.164;-3.124;2023-04-15T14:37:22;6.03;;;4.00;;
47009;SDS011;59230;54.164;-3.124;2023-04-15T14:39:51;7.32;;;4.07;;
47009;SDS011;59230;54.164;-3.124;2023-04-15T14:42:16;7.55;;;4.30;;
47009;SDS011;59230;54.164;-3.124;2023-04-15T14:44:43;7.05;;;4.25;;
47009;SDS011;59230;54.164;-3.124;2023-04-15T14:47:09;8.43;;;4.88;;
47009;SDS011;59230;54.164;-3.124;2023-04-15T14:49:37;5.43;;;4.50;;
47009;SDS011;59230;54.164;-3.124;2023-04-15T14:52:03;8.88;;;4.70;;
47009;SDS011;59230;54.164;-3.124;2023-04-15T14:54:31;6.82;;;4.30;;
47009;SDS011;59230;54.164;-3.124;2023-04-15T14:56:58;5.88;;;4.00;;
47009;SDS011;59230;54.164;-3.124;2023-04-15T14:59:27;6.30;;;4.20;;
47009;SDS011;59230;54.164;-3.124;2023-04-15T15:01:56;4.63;;;3.67;;
47009;SDS011;59230;54.164;-3.124;2023-04-15T15:04:21;6.55;;;4.63;;
47009;SDS011;59230;54.164;-3.124;2023-04-15T15:06:48;5.78;;;4.85;;
47009;SDS011;59230;54.164;-3.124;2023-04-15T15:09:15;7.68;;;4.50;;